Bushnell, Illinois
Current Conditions -  °F | °C
As of 11:35 PM on Friday 19 Dec 2014 (Local Time) from KMQB Reporting Station
Overcast Overcast  
Wind Chill: 30°   Ceiling: 4800
Heat Index: 30°   Visibility: 10mi
Dew Point: 26°   Wind: 0mph
Humidity: 83%   Direction: NA
Pressure: 30.29"   Gusts: NA
Location:  40.55°N, 90.51°W
Report Text: KMQB 200535Z AUTO 00000KT 10SM OVC048 M01/M03 A3029 RMK AO2 T10091035
Loading
Personal Weather Stations






























Interactive Weather Map New forecast layout! Learn more

10-Day Weather Forecast

Advertisements
Track Severe Weather on mobile